createdAt,value
2022-09-27T00:00:33.933Z,15.81
2022-09-27T00:03:00.755Z,15.73
2022-09-27T00:05:27.587Z,15.69
2022-09-27T00:07:54.681Z,15.75
2022-09-27T00:10:21.353Z,15.74
2022-09-27T00:12:48.508Z,15.76
2022-09-27T00:15:15.330Z,15.59
2022-09-27T00:17:42.294Z,15.43
2022-09-27T00:20:10.157Z,15.39
2022-09-27T00:22:37.452Z,15.36
2022-09-27T00:25:07.438Z,15.12
2022-09-27T00:27:34.182Z,15.26
2022-09-27T00:30:00.892Z,15.40
2022-09-27T00:32:27.610Z,15.34
2022-09-27T00:34:54.460Z,15.37
2022-09-27T00:37:21.404Z,15.32
2022-09-27T00:39:48.118Z,15.29
2022-09-27T00:42:15.362Z,15.29
2022-09-27T00:44:41.961Z,15.25
2022-09-27T00:47:22.742Z,15.34
2022-09-27T00:50:11.602Z,15.11
2022-09-27T00:53:23.677Z,15.19
2022-09-27T00:55:57.493Z,15.10
2022-09-27T00:58:30.556Z,14.97
2022-09-27T01:01:01.578Z,14.66
2022-09-27T01:03:52.768Z,14.39
2022-09-27T01:06:21.351Z,14.56
2022-09-27T01:08:48.685Z,13.88
2022-09-27T01:11:37.135Z,14.02
2022-09-27T01:14:26.620Z,14.48
2022-09-27T01:17:25.466Z,13.96
2022-09-27T01:20:10.452Z,14.28
2022-09-27T01:22:44.425Z,13.47
2022-09-27T01:26:09.181Z,13.70
2022-09-27T01:28:56.289Z,13.95
2022-09-27T01:31:31.755Z,14.22
2022-09-27T01:34:12.246Z,14.29
2022-09-27T01:36:47.989Z,14.59
2022-09-27T01:39:29.452Z,14.12
2022-09-27T01:42:17.388Z,13.85
2022-09-27T01:44:58.429Z,14.06
2022-09-27T01:47:32.144Z,14.33
2022-09-27T01:50:28.159Z,14.07
2022-09-27T01:53:01.152Z,14.43
2022-09-27T01:55:32.766Z,14.03
2022-09-27T01:58:06.929Z,13.13
2022-09-27T02:00:36.201Z,13.52
2022-09-27T02:03:36.059Z,14.22
2022-09-27T02:06:05.672Z,14.42
2022-09-27T02:08:41.941Z,14.64
2022-09-27T02:11:12.955Z,14.51
2022-09-27T02:13:57.622Z,14.44
2022-09-27T02:16:48.467Z,14.86
2022-09-27T02:19:23.972Z,14.84
2022-09-27T02:22:10.764Z,14.70
2022-09-27T02:24:40.873Z,14.90
2022-09-27T02:27:12.618Z,15.17
2022-09-27T02:29:46.836Z,15.45
2022-09-27T02:32:13.449Z,15.40
2022-09-27T02:34:41.282Z,15.52
2022-09-27T02:37:07.855Z,15.55
2022-09-27T02:39:34.514Z,15.57
2022-09-27T02:42:01.224Z,15.50
2022-09-27T02:44:28.230Z,15.91
2022-09-27T02:47:01.027Z,14.90
2022-09-27T02:49:39.477Z,15.57
2022-09-27T02:52:18.413Z,15.86
2022-09-27T02:54:49.034Z,15.96
2022-09-27T02:57:46.167Z,15.81
2022-09-27T03:00:16.365Z,15.69
2022-09-27T03:03:12.076Z,15.65
2022-09-27T03:05:48.301Z,15.73
2022-09-27T03:08:15.168Z,15.84
2022-09-27T03:10:42.120Z,15.28
2022-09-27T03:13:08.696Z,15.28
2022-09-27T03:15:35.281Z,15.80
2022-09-27T03:18:02.415Z,15.95
2022-09-27T03:20:29.647Z,15.88
2022-09-27T03:22:56.608Z,15.94
2022-09-27T03:25:23.248Z,15.85
2022-09-27T03:27:49.880Z,16.03
2022-09-27T03:30:16.554Z,16.16
2022-09-27T03:32:46.545Z,15.79
2022-09-27T03:35:13.320Z,15.64
2022-09-27T03:37:41.234Z,15.30
2022-09-27T03:40:08.547Z,15.61
2022-09-27T03:42:35.294Z,15.82
2022-09-27T03:45:02.125Z,15.92
2022-09-27T03:47:28.737Z,15.79
2022-09-27T03:49:55.358Z,16.13
2022-09-27T03:52:21.994Z,15.76
2022-09-27T03:54:48.577Z,15.69
2022-09-27T03:57:15.155Z,15.86
2022-09-27T03:59:41.716Z,15.72
2022-09-27T04:02:08.316Z,15.78
2022-09-27T04:04:35.018Z,15.61
2022-09-27T04:07:01.846Z,15.59
2022-09-27T04:09:28.402Z,15.33
2022-09-27T04:11:55.264Z,15.60
2022-09-27T04:14:21.907Z,15.35
2022-09-27T04:16:49.248Z,15.39
2022-09-27T04:19:16.025Z,15.71
2022-09-27T04:21:42.824Z,15.94
2022-09-27T04:24:11.110Z,15.79
2022-09-27T04:26:38.211Z,16.12
2022-09-27T04:29:04.754Z,16.07
2022-09-27T04:31:31.394Z,16.22
2022-09-27T04:33:58.954Z,16.06
2022-09-27T04:36:29.117Z,16.53
2022-09-27T04:38:56.649Z,15.97
2022-09-27T04:41:23.735Z,16.44
2022-09-27T04:43:53.110Z,15.99
2022-09-27T04:46:23.877Z,15.71
2022-09-27T04:48:50.890Z,15.73
2022-09-27T04:51:18.030Z,15.00
2022-09-27T04:53:45.132Z,15.11
2022-09-27T04:56:12.790Z,15.15
2022-09-27T04:58:39.689Z,15.03
2022-09-27T05:01:07.416Z,15.33
2022-09-27T05:03:34.009Z,15.02
2022-09-27T05:06:00.916Z,15.00
2022-09-27T05:08:27.989Z,15.03
2022-09-27T05:10:55.396Z,14.92
2022-09-27T05:13:22.628Z,15.40
2022-09-27T05:15:49.223Z,15.54
2022-09-27T05:18:15.848Z,15.66
2022-09-27T05:20:42.367Z,15.73
2022-09-27T05:23:08.906Z,15.70
2022-09-27T05:25:35.635Z,15.51
2022-09-27T05:28:02.501Z,15.50
2022-09-27T05:30:29.171Z,15.53
2022-09-27T05:32:56.168Z,15.92
2022-09-27T05:35:22.987Z,16.03
2022-09-27T05:37:53.789Z,16.13
2022-09-27T05:40:40.310Z,15.98
2022-09-27T05:43:08.615Z,16.42
2022-09-27T05:45:35.228Z,16.18
2022-09-27T05:48:02.134Z,16.09
2022-09-27T05:50:29.066Z,16.15
2022-09-27T05:52:55.953Z,16.11
2022-09-27T05:55:22.699Z,16.19
2022-09-27T05:58:03.135Z,15.74
2022-09-27T06:00:39.113Z,16.15
2022-09-27T06:03:06.930Z,16.33
2022-09-27T06:05:37.902Z,16.04
2022-09-27T06:08:06.344Z,16.21
2022-09-27T06:10:33.410Z,16.49
2022-09-27T06:13:05.280Z,16.49
2022-09-27T06:15:33.261Z,16.13
2022-09-27T06:18:11.757Z,16.22
2022-09-27T06:20:39.285Z,16.24
2022-09-27T06:23:06.110Z,16.40
2022-09-27T06:25:32.716Z,16.40
2022-09-27T06:27:59.468Z,16.18
2022-09-27T06:30:28.767Z,16.61
2022-09-27T06:33:02.238Z,16.12
2022-09-27T06:35:32.778Z,15.84
2022-09-27T06:38:04.861Z,16.16
2022-09-27T06:40:33.825Z,15.84
2022-09-27T06:43:07.127Z,16.18
2022-09-27T06:45:36.578Z,16.62
2022-09-27T06:48:06.394Z,16.59
2022-09-27T06:50:34.247Z,16.02
2022-09-27T06:53:01.210Z,16.90
2022-09-27T06:55:28.176Z,16.83
2022-09-27T06:58:17.115Z,16.52
2022-09-27T07:00:43.755Z,16.48
2022-09-27T07:03:11.580Z,16.38
2022-09-27T07:05:39.543Z,16.67
2022-09-27T07:08:06.114Z,16.26
2022-09-27T07:10:35.240Z,16.21
2022-09-27T07:13:09.396Z,16.33
2022-09-27T07:15:37.658Z,16.64
2022-09-27T07:18:05.263Z,16.95
2022-09-27T07:20:32.744Z,17.18
2022-09-27T07:22:59.443Z,16.80
2022-09-27T07:25:26.431Z,16.33
2022-09-27T07:27:53.036Z,16.82
2022-09-27T07:30:20.226Z,16.36
2022-09-27T07:32:47.298Z,17.05
2022-09-27T07:35:15.672Z,16.88
2022-09-27T07:37:43.174Z,16.85
2022-09-27T07:40:10.049Z,16.60
2022-09-27T07:42:41.897Z,16.44
2022-09-27T07:45:09.544Z,16.70
2022-09-27T07:47:38.174Z,17.07
2022-09-27T07:50:05.752Z,17.34
2022-09-27T07:52:38.864Z,17.55
2022-09-27T07:55:05.897Z,17.29
2022-09-27T07:57:32.513Z,17.89
2022-09-27T07:59:59.180Z,18.32
2022-09-27T08:02:26.094Z,17.64
2022-09-27T08:04:53.357Z,18.22
2022-09-27T08:07:19.939Z,18.06
2022-09-27T08:09:46.562Z,17.43
2022-09-27T08:12:13.134Z,17.18
2022-09-27T08:14:45.010Z,17.55
2022-09-27T08:17:15.141Z,17.43
2022-09-27T08:19:41.966Z,17.53
2022-09-27T08:22:08.587Z,17.68
2022-09-27T08:24:35.242Z,18.06
2022-09-27T08:27:10.734Z,17.98
2022-09-27T08:29:42.908Z,18.49
2022-09-27T08:32:10.195Z,18.16
2022-09-27T08:34:37.077Z,18.47
2022-09-27T08:37:04.023Z,17.59
2022-09-27T08:39:31.306Z,18.29
2022-09-27T08:42:04.122Z,18.66
2022-09-27T08:44:34.190Z,18.55
2022-09-27T08:47:06.930Z,18.95
2022-09-27T08:49:33.620Z,18.40
2022-09-27T08:52:01.243Z,18.41
2022-09-27T08:54:32.891Z,18.78
2022-09-27T08:57:05.196Z,19.35
2022-09-27T08:59:36.241Z,19.39
2022-09-27T09:02:03.672Z,19.12
2022-09-27T09:04:35.426Z,19.51
2022-09-27T09:07:14.163Z,19.89
2022-09-27T09:09:48.801Z,20.34
2022-09-27T09:12:49.090Z,20.34
2022-09-27T09:15:18.490Z,20.55
2022-09-27T09:18:03.179Z,20.68
2022-09-27T09:21:02.573Z,20.34
2022-09-27T09:23:55.608Z,20.89
2022-09-27T09:26:25.273Z,20.19
2022-09-27T09:29:07.528Z,20.23
2022-09-27T09:31:48.179Z,20.16
2022-09-27T09:34:25.788Z,20.28
2022-09-27T09:36:53.447Z,20.00
2022-09-27T09:39:20.076Z,20.37
2022-09-27T09:41:46.851Z,20.37
2022-09-27T09:44:16.609Z,20.62
2022-09-27T09:46:46.766Z,21.49
2022-09-27T09:49:17.079Z,22.00
2022-09-27T09:51:47.813Z,22.25
2022-09-27T09:54:14.519Z,22.73
2022-09-27T09:56:45.836Z,22.57
2022-09-27T09:59:39.093Z,22.72
2022-09-27T10:02:35.300Z,22.92
2022-09-27T10:05:07.493Z,22.83
2022-09-27T10:07:36.771Z,23.10
2022-09-27T10:10:05.065Z,22.96
2022-09-27T10:12:31.825Z,23.24
2022-09-27T10:15:01.375Z,22.96
2022-09-27T10:17:34.664Z,22.92
2022-09-27T10:20:02.459Z,22.73
2022-09-27T10:22:36.844Z,22.52
2022-09-27T10:25:07.195Z,23.11
2022-09-27T10:27:42.688Z,22.24
2022-09-27T10:30:35.760Z,21.70
2022-09-27T10:33:07.940Z,22.17
2022-09-27T10:35:39.589Z,22.58
2022-09-27T10:38:22.682Z,22.48
2022-09-27T10:40:50.684Z,22.76
2022-09-27T10:43:34.357Z,23.16
2022-09-27T10:46:05.074Z,23.69
2022-09-27T10:48:31.881Z,23.35
2022-09-27T10:51:02.713Z,23.63
2022-09-27T10:53:31.020Z,23.85
2022-09-27T10:55:58.057Z,23.94
2022-09-27T10:58:27.196Z,23.79
2022-09-27T11:00:55.262Z,23.95
2022-09-27T11:03:22.606Z,24.22
2022-09-27T11:05:49.505Z,24.34
2022-09-27T11:08:19.046Z,24.68
2022-09-27T11:11:00.530Z,24.80
2022-09-27T11:13:32.498Z,24.48
2022-09-27T11:16:11.670Z,24.83
2022-09-27T11:18:47.534Z,24.67
2022-09-27T11:21:24.974Z,24.81
2022-09-27T11:24:00.735Z,24.66
2022-09-27T11:26:34.224Z,24.46
2022-09-27T11:29:21.570Z,24.72
2022-09-27T11:31:48.307Z,24.55
2022-09-27T11:34:36.816Z,24.42
2022-09-27T11:37:12.380Z,24.45
2022-09-27T11:39:51.538Z,24.30
2022-09-27T11:42:27.355Z,24.30
2022-09-27T11:45:34.135Z,24.35
2022-09-27T11:48:22.854Z,24.48
2022-09-27T11:51:27.974Z,24.30
2022-09-27T11:53:54.593Z,24.64
2022-09-27T11:56:30.322Z,24.46
2022-09-27T11:59:22.464Z,24.39
2022-09-27T12:01:57.024Z,24.20
2022-09-27T12:04:26.563Z,24.18
2022-09-27T12:06:59.001Z,24.39
2022-09-27T12:09:30.728Z,24.42
2022-09-27T12:12:00.076Z,23.41
2022-09-27T12:14:34.600Z,21.93
2022-09-27T12:17:03.121Z,21.44
2022-09-27T12:19:32.933Z,19.18
2022-09-27T12:22:02.573Z,18.32
2022-09-27T12:24:30.734Z,18.76
2022-09-27T12:27:04.054Z,17.63
2022-09-27T12:29:34.183Z,17.61
2022-09-27T12:32:19.786Z,17.84
2022-09-27T12:34:52.022Z,16.87
2022-09-27T12:37:21.555Z,17.30
2022-09-27T12:39:57.639Z,16.30
2022-09-27T12:42:42.686Z,15.71
2022-09-27T12:45:22.519Z,16.15
2022-09-27T12:48:22.515Z,16.06
2022-09-27T12:50:55.207Z,16.09
2022-09-27T12:53:28.332Z,16.04
2022-09-27T12:56:11.916Z,16.80
2022-09-27T12:58:38.637Z,16.20
2022-09-27T13:01:15.356Z,16.63
2022-09-27T13:03:53.763Z,16.47
2022-09-27T13:06:57.195Z,16.96
2022-09-27T13:09:31.967Z,16.70
2022-09-27T13:12:01.564Z,16.67
2022-09-27T13:14:30.760Z,17.08
2022-09-27T13:16:57.523Z,17.46
2022-09-27T13:19:36.447Z,17.27
2022-09-27T13:22:05.272Z,17.33
2022-09-27T13:24:41.030Z,17.34
2022-09-27T13:27:23.265Z,17.50
2022-09-27T13:29:50.565Z,17.16
2022-09-27T13:32:17.251Z,17.42
2022-09-27T13:35:04.257Z,16.80
2022-09-27T13:37:44.718Z,17.67
2022-09-27T13:40:15.988Z,17.46
2022-09-27T13:42:55.923Z,17.86
2022-09-27T13:45:29.497Z,18.01
2022-09-27T13:47:58.951Z,17.89
2022-09-27T13:50:34.490Z,17.81
2022-09-27T13:53:04.341Z,17.91
2022-09-27T13:55:47.689Z,17.84
2022-09-27T13:58:20.541Z,17.97
2022-09-27T14:00:51.830Z,18.35
2022-09-27T14:03:23.204Z,18.36
2022-09-27T14:05:55.529Z,18.19
2022-09-27T14:08:22.404Z,18.17
2022-09-27T14:10:49.143Z,17.87
2022-09-27T14:13:20.722Z,17.52
2022-09-27T14:15:48.481Z,17.68
2022-09-27T14:18:15.410Z,17.90
2022-09-27T14:20:46.581Z,17.58
2022-09-27T14:23:18.221Z,16.63
2022-09-27T14:25:46.847Z,17.07
2022-09-27T14:28:24.346Z,16.98
2022-09-27T14:31:10.383Z,16.93
2022-09-27T14:33:37.197Z,16.11
2022-09-27T14:36:25.047Z,16.54
2022-09-27T14:38:52.095Z,16.01
2022-09-27T14:41:18.881Z,16.90
2022-09-27T14:43:46.531Z,16.95
2022-09-27T14:46:27.691Z,16.88
2022-09-27T14:48:55.673Z,17.19
2022-09-27T14:51:32.242Z,17.02
2022-09-27T14:54:01.649Z,17.09
2022-09-27T14:56:32.407Z,17.41
2022-09-27T14:59:02.838Z,17.42
2022-09-27T15:01:30.310Z,17.54
2022-09-27T15:04:07.515Z,17.28
2022-09-27T15:06:37.975Z,17.76
2022-09-27T15:09:06.381Z,17.59
2022-09-27T15:11:34.995Z,17.87
2022-09-27T15:14:03.968Z,18.11
2022-09-27T15:16:31.587Z,18.07
2022-09-27T15:19:19.148Z,18.12
2022-09-27T15:21:45.982Z,18.23
2022-09-27T15:24:31.335Z,18.35
2022-09-27T15:26:58.752Z,17.91
2022-09-27T15:29:26.080Z,18.31
2022-09-27T15:31:59.800Z,18.21
2022-09-27T15:34:27.830Z,17.69
2022-09-27T15:37:00.977Z,18.14
2022-09-27T15:39:29.374Z,17.96
2022-09-27T15:42:10.241Z,18.07
2022-09-27T15:44:39.805Z,18.22
2022-09-27T15:47:26.361Z,18.12
2022-09-27T15:49:53.611Z,18.09
2022-09-27T15:52:39.284Z,17.88
2022-09-27T15:55:06.267Z,18.16
2022-09-27T15:57:33.093Z,18.13
2022-09-27T15:59:59.907Z,18.22
2022-09-27T16:02:26.695Z,18.11
2022-09-27T16:04:53.314Z,18.08
2022-09-27T16:07:19.935Z,18.02
2022-09-27T16:09:49.485Z,17.88
2022-09-27T16:12:16.374Z,17.95
2022-09-27T16:14:43.116Z,18.31
2022-09-27T16:17:10.429Z,18.28
2022-09-27T16:19:37.061Z,18.23
2022-09-27T16:22:03.856Z,18.15
2022-09-27T16:24:31.767Z,18.25
2022-09-27T16:26:59.145Z,18.11
2022-09-27T16:29:26.287Z,17.96
2022-09-27T16:31:53.881Z,18.00
2022-09-27T16:34:20.558Z,18.22
2022-09-27T16:36:49.270Z,18.23
2022-09-27T16:39:16.075Z,17.82
2022-09-27T16:41:43.771Z,18.09
2022-09-27T16:44:12.757Z,18.05
2022-09-27T16:46:40.159Z,18.12
2022-09-27T16:49:26.788Z,18.02
2022-09-27T16:52:02.315Z,17.93
2022-09-27T16:54:29.671Z,18.01
2022-09-27T16:56:56.850Z,18.09
2022-09-27T16:59:25.723Z,18.22
2022-09-27T17:01:52.894Z,18.17
2022-09-27T17:04:19.603Z,18.21
2022-09-27T17:06:46.762Z,18.07
2022-09-27T17:09:13.409Z,18.17
2022-09-27T17:11:40.397Z,18.14
2022-09-27T17:14:07.093Z,18.24
2022-09-27T17:16:33.730Z,18.11
2022-09-27T17:19:00.411Z,18.13
2022-09-27T17:21:27.017Z,18.16
2022-09-27T17:23:53.830Z,18.10
2022-09-27T17:26:22.285Z,18.08
2022-09-27T17:28:50.081Z,18.11
2022-09-27T17:31:18.012Z,18.20
2022-09-27T17:33:46.388Z,18.15
2022-09-27T17:36:19.234Z,17.96
2022-09-27T17:38:46.919Z,17.82
2022-09-27T17:43:51.956Z,17.79
2022-09-27T17:46:19.947Z,17.85
2022-09-27T17:49:06.009Z,17.77
2022-09-27T17:51:33.608Z,17.79
2022-09-27T17:54:00.312Z,17.74
2022-09-27T17:56:27.108Z,17.65
2022-09-27T17:58:54.700Z,17.82
2022-09-27T18:01:23.052Z,17.77
2022-09-27T18:03:52.844Z,17.68
2022-09-27T18:06:21.598Z,17.81
2022-09-27T18:08:48.422Z,17.62
2022-09-27T18:11:16.886Z,17.69
2022-09-27T18:13:44.250Z,17.67
2022-09-27T18:16:12.275Z,17.58
2022-09-27T18:18:42.066Z,17.61
2022-09-27T18:21:14.183Z,17.48
2022-09-27T18:23:41.413Z,17.48
2022-09-27T18:26:09.008Z,17.54
2022-09-27T18:28:37.023Z,17.49
2022-09-27T18:31:08.413Z,17.54
2022-09-27T18:33:35.637Z,17.48
2022-09-27T18:36:05.891Z,17.46
2022-09-27T18:38:33.167Z,17.55
2022-09-27T18:41:19.164Z,17.56
2022-09-27T18:43:47.047Z,17.51
2022-09-27T18:46:34.609Z,17.51
2022-09-27T18:49:06.314Z,17.55
2022-09-27T18:51:33.616Z,17.64
2022-09-27T18:54:01.309Z,17.53
2022-09-27T18:56:28.422Z,17.44
2022-09-27T18:58:55.128Z,17.39
2022-09-27T19:01:25.000Z,17.44
2022-09-27T19:03:52.062Z,17.36
2022-09-27T19:06:19.868Z,17.40
2022-09-27T19:08:49.756Z,17.33
2022-09-27T19:11:17.431Z,16.94
2022-09-27T19:13:51.127Z,17.27
2022-09-27T19:16:18.608Z,17.24
2022-09-27T19:18:45.460Z,16.80
2022-09-27T19:21:13.569Z,17.01
2022-09-27T19:23:40.846Z,17.04
2022-09-27T19:26:08.639Z,16.94
2022-09-27T19:28:36.321Z,17.01
2022-09-27T19:31:07.274Z,16.89
2022-09-27T19:33:34.764Z,17.11
2022-09-27T19:36:02.276Z,16.57
2022-09-27T19:38:32.586Z,16.67
2022-09-27T19:40:59.848Z,16.74
2022-09-27T19:43:26.559Z,16.75
2022-09-27T19:45:53.615Z,16.88
2022-09-27T19:48:20.572Z,16.88
2022-09-27T19:50:57.673Z,16.79
2022-09-27T19:53:27.692Z,16.93
2022-09-27T19:56:02.270Z,16.92
2022-09-27T19:58:29.839Z,16.98
2022-09-27T20:01:00.784Z,17.06
2022-09-27T20:03:28.112Z,16.75
2022-09-27T20:05:55.180Z,16.66
2022-09-27T20:08:22.130Z,16.61
2022-09-27T20:11:06.094Z,16.68
2022-09-27T20:13:33.495Z,15.55
2022-09-27T20:16:03.588Z,15.78
2022-09-27T20:18:30.416Z,15.72
2022-09-27T20:21:03.933Z,16.16
2022-09-27T20:23:31.790Z,15.92
2022-09-27T20:26:01.811Z,15.99
2022-09-27T20:28:28.646Z,16.12
2022-09-27T20:30:56.268Z,16.02
2022-09-27T20:33:41.356Z,15.77
2022-09-27T20:36:08.852Z,16.19
2022-09-27T20:38:35.662Z,16.37
2022-09-27T20:41:02.308Z,16.37
2022-09-27T20:43:28.878Z,16.21
2022-09-27T20:45:59.885Z,16.22
2022-09-27T20:48:26.519Z,16.18
2022-09-27T20:50:59.351Z,16.35
2022-09-27T20:53:28.333Z,16.17
2022-09-27T20:55:55.758Z,16.05
2022-09-27T20:58:23.029Z,16.13
2022-09-27T21:00:50.052Z,16.31
2022-09-27T21:03:21.494Z,16.39
2022-09-27T21:05:55.269Z,16.47
2022-09-27T21:08:21.865Z,16.45
2022-09-27T21:10:52.705Z,16.30
2022-09-27T21:13:19.967Z,16.46
2022-09-27T21:15:47.110Z,16.36
2022-09-27T21:18:13.934Z,16.29
2022-09-27T21:20:41.068Z,16.45
2022-09-27T21:23:07.706Z,16.65
2022-09-27T21:25:34.454Z,16.09
2022-09-27T21:28:04.469Z,16.06
2022-09-27T21:30:31.223Z,16.11
2022-09-27T21:32:57.948Z,16.10
2022-09-27T21:35:24.733Z,16.10
2022-09-27T21:37:51.362Z,15.95
2022-09-27T21:40:18.159Z,16.15
2022-09-27T21:42:44.934Z,16.16
2022-09-27T21:45:11.773Z,15.90
2022-09-27T21:47:38.330Z,15.99
2022-09-27T21:50:05.088Z,16.05
2022-09-27T21:52:31.732Z,16.16
2022-09-27T21:54:58.293Z,16.19
2022-09-27T21:57:24.863Z,16.09
2022-09-27T21:59:51.672Z,15.83
2022-09-27T22:02:19.492Z,15.87
2022-09-27T22:04:46.184Z,15.96
2022-09-27T22:07:12.800Z,15.90
2022-09-27T22:09:39.514Z,16.00
2022-09-27T22:12:06.465Z,16.03
2022-09-27T22:14:34.425Z,15.97
2022-09-27T22:17:00.965Z,16.03
2022-09-27T22:19:27.625Z,16.04
2022-09-27T22:21:54.215Z,16.07
2022-09-27T22:24:20.885Z,16.13
2022-09-27T22:26:49.526Z,16.05
2022-09-27T22:29:16.402Z,15.80
2022-09-27T22:31:43.366Z,15.90
2022-09-27T22:34:16.576Z,15.71
2022-09-27T22:36:43.755Z,15.78
2022-09-27T22:39:10.501Z,15.75
2022-09-27T22:41:37.213Z,15.40
2022-09-27T22:44:03.848Z,15.65
2022-09-27T22:46:30.571Z,15.67
2022-09-27T22:48:57.324Z,15.38
2022-09-27T22:51:24.114Z,15.31
2022-09-27T22:53:50.706Z,15.57
2022-09-27T22:56:18.998Z,15.77
2022-09-27T22:58:47.410Z,15.73
2022-09-27T23:01:16.785Z,15.70
2022-09-27T23:03:44.136Z,15.75
2022-09-27T23:06:10.896Z,15.85
2022-09-27T23:08:38.260Z,15.85
2022-09-27T23:11:12.661Z,15.73
2022-09-27T23:13:40.315Z,15.65
2022-09-27T23:16:08.102Z,15.41
2022-09-27T23:18:34.977Z,15.46
2022-09-27T23:21:03.408Z,15.56
2022-09-27T23:23:31.223Z,15.58
2022-09-27T23:25:59.155Z,15.62
2022-09-27T23:28:26.135Z,15.49
2022-09-27T23:30:52.700Z,15.49
2022-09-27T23:33:19.367Z,15.54
2022-09-27T23:35:47.092Z,15.65
2022-09-27T23:38:14.765Z,15.64
2022-09-27T23:40:42.015Z,15.69
2022-09-27T23:43:09.255Z,15.63
2022-09-27T23:45:36.669Z,15.25
2022-09-27T23:48:04.228Z,15.25
2022-09-27T23:50:32.616Z,15.33
2022-09-27T23:52:59.655Z,15.27
2022-09-27T23:55:26.393Z,15.21
2022-09-27T23:57:52.946Z,15.19
